PAC998 PANC-PAFA
Flight info
| Callsign | PAC998 |
|---|---|
| Flight time | 0h 43m |
| Altitude | 28000 |
| Route | CAWIN LIBER5 |
| Aircraft | B77L/H-SDE1E2E3FGHIJ2J3J4J5M1RWXY/LB1D1 |
Departure
| Time | 2026-05-07 02:02 |
|---|---|
| Airport | Ted Stevens Anchorage International Airport (PANC) |
Arrival
| Time | 2026-05-07 02:45 |
|---|---|
| Airport | Fairbanks International Airport (PAFA) |
| Time | Latitude | Longitude | Altitude | Speed | Heading |
|---|---|---|---|---|---|
| 2026-05-07 01:15 | 61.19641 | -150.00742 | 166 ft | 0 kts | 341° |
| 2026-05-07 01:37 | 61.19639 | -150.00742 | 166 ft | 1 kts | 341° |
| 2026-05-07 01:37 | 61.19625 | -150.00731 | 166 ft | 2 kts | 341° |
| 2026-05-07 01:37 | 61.19611 | -150.00722 | 166 ft | 2 kts | 341° |
| 2026-05-07 01:38 | 61.19597 | -150.00711 | 166 ft | 2 kts | 339° |
| 2026-05-07 01:38 | 61.19584 | -150.00696 | 166 ft | 2 kts | 310° |
| 2026-05-07 01:38 | 61.19576 | -150.00668 | 166 ft | 2 kts | 287° |
| 2026-05-07 01:38 | 61.19574 | -150.00639 | 166 ft | 2 kts | 264° |
| 2026-05-07 01:39 | 61.19576 | -150.00615 | 166 ft | 0 kts | 254° |
| 2026-05-07 01:42 | 61.19576 | -150.00617 | 166 ft | 0 kts | 254° |
| 2026-05-07 01:42 | 61.19575 | -150.00626 | 166 ft | 1 kts | 255° |
| 2026-05-07 01:42 | 61.19572 | -150.00653 | 166 ft | 2 kts | 258° |
| 2026-05-07 01:42 | 61.19568 | -150.00696 | 166 ft | 3 kts | 257° |
| 2026-05-07 01:43 | 61.19561 | -150.00755 | 166 ft | 4 kts | 255° |
| 2026-05-07 01:43 | 61.19549 | -150.00829 | 166 ft | 5 kts | 244° |
| 2026-05-07 01:43 | 61.19517 | -150.00864 | 166 ft | 3 kts | 175° |
| 2026-05-07 01:43 | 61.19485 | -150.00845 | 166 ft | 5 kts | 162° |
| 2026-05-07 01:44 | 61.19446 | -150.00819 | 166 ft | 6 kts | 163° |
| 2026-05-07 01:44 | 61.19398 | -150.00790 | 166 ft | 7 kts | 164° |
| 2026-05-07 01:44 | 61.19344 | -150.00760 | 166 ft | 8 kts | 164° |
| 2026-05-07 01:44 | 61.19285 | -150.00726 | 166 ft | 9 kts | 165° |
| 2026-05-07 01:45 | 61.19219 | -150.00691 | 166 ft | 10 kts | 165° |
| 2026-05-07 01:45 | 61.19149 | -150.00652 | 166 ft | 10 kts | 165° |
| 2026-05-07 01:45 | 61.19085 | -150.00615 | 166 ft | 9 kts | 164° |
| 2026-05-07 01:45 | 61.19022 | -150.00577 | 166 ft | 9 kts | 164° |
| 2026-05-07 01:46 | 61.18953 | -150.00537 | 166 ft | 10 kts | 165° |
| 2026-05-07 01:46 | 61.18881 | -150.00497 | 166 ft | 11 kts | 165° |
| 2026-05-07 01:46 | 61.18803 | -150.00452 | 166 ft | 11 kts | 163° |
| 2026-05-07 01:46 | 61.18724 | -150.00403 | 166 ft | 12 kts | 163° |
| 2026-05-07 01:47 | 61.18641 | -150.00359 | 166 ft | 12 kts | 165° |
| 2026-05-07 01:47 | 61.18556 | -150.00311 | 166 ft | 12 kts | 165° |
| 2026-05-07 01:47 | 61.18468 | -150.00258 | 166 ft | 13 kts | 164° |
| 2026-05-07 01:47 | 61.18377 | -150.00205 | 166 ft | 13 kts | 164° |
| 2026-05-07 01:48 | 61.18286 | -150.00151 | 166 ft | 13 kts | 165° |
| 2026-05-07 01:48 | 61.18193 | -150.00099 | 166 ft | 14 kts | 165° |
| 2026-05-07 01:48 | 61.18098 | -150.00046 | 166 ft | 14 kts | 165° |
| 2026-05-07 01:48 | 61.18003 | -149.99991 | 166 ft | 14 kts | 164° |
| 2026-05-07 01:49 | 61.17905 | -149.99933 | 166 ft | 14 kts | 164° |
| 2026-05-07 01:49 | 61.17809 | -149.99878 | 166 ft | 14 kts | 165° |
| 2026-05-07 01:49 | 61.17710 | -149.99821 | 166 ft | 14 kts | 164° |
| 2026-05-07 01:49 | 61.17610 | -149.99764 | 166 ft | 14 kts | 165° |
| 2026-05-07 01:50 | 61.17514 | -149.99710 | 166 ft | 15 kts | 165° |
| 2026-05-07 01:51 | 61.17437 | -149.99667 | 166 ft | 15 kts | 165° |
| 2026-05-07 01:52 | 61.17336 | -149.99611 | 166 ft | 15 kts | 165° |
| 2026-05-07 01:52 | 61.17242 | -149.99558 | 166 ft | 14 kts | 164° |
| 2026-05-07 01:52 | 61.17158 | -149.99509 | 166 ft | 8 kts | 163° |
| 2026-05-07 01:52 | 61.17126 | -149.99438 | 166 ft | 7 kts | 100° |
| 2026-05-07 01:53 | 61.17127 | -149.99324 | 166 ft | 8 kts | 89° |
| 2026-05-07 01:53 | 61.17128 | -149.99191 | 166 ft | 9 kts | 91° |
| 2026-05-07 01:53 | 61.17124 | -149.99048 | 166 ft | 10 kts | 93° |
| 2026-05-07 01:53 | 61.17122 | -149.98891 | 166 ft | 11 kts | 90° |
| 2026-05-07 01:54 | 61.17122 | -149.98724 | 166 ft | 11 kts | 90° |
| 2026-05-07 01:54 | 61.17121 | -149.98549 | 166 ft | 12 kts | 90° |
| 2026-05-07 01:54 | 61.17121 | -149.98364 | 166 ft | 13 kts | 90° |
| 2026-05-07 01:54 | 61.17120 | -149.98173 | 166 ft | 13 kts | 91° |
| 2026-05-07 01:55 | 61.17119 | -149.98029 | 166 ft | 5 kts | 90° |
| 2026-05-07 01:56 | 61.17119 | -149.97967 | 166 ft | 6 kts | 90° |
| 2026-05-07 01:56 | 61.17119 | -149.97861 | 166 ft | 8 kts | 90° |
| 2026-05-07 01:56 | 61.17118 | -149.97731 | 166 ft | 9 kts | 90° |
| 2026-05-07 01:56 | 61.17118 | -149.97575 | 166 ft | 11 kts | 89° |
| 2026-05-07 01:57 | 61.17120 | -149.97391 | 166 ft | 14 kts | 88° |
| 2026-05-07 01:57 | 61.17124 | -149.97170 | 166 ft | 16 kts | 88° |
| 2026-05-07 01:57 | 61.17127 | -149.96916 | 166 ft | 18 kts | 89° |
| 2026-05-07 01:57 | 61.17126 | -149.96642 | 166 ft | 20 kts | 91° |
| 2026-05-07 01:58 | 61.17126 | -149.96338 | 166 ft | 21 kts | 90° |
| 2026-05-07 01:58 | 61.17125 | -149.96014 | 165 ft | 23 kts | 90° |
| 2026-05-07 01:58 | 61.17125 | -149.95671 | 166 ft | 24 kts | 90° |
| 2026-05-07 01:58 | 61.17124 | -149.95325 | 165 ft | 23 kts | 90° |
| 2026-05-07 01:59 | 61.17124 | -149.95038 | 165 ft | 15 kts | 91° |
| 2026-05-07 01:59 | 61.17122 | -149.94904 | 165 ft | 4 kts | 97° |
| 2026-05-07 01:59 | 61.17110 | -149.94858 | 165 ft | 3 kts | 133° |
| 2026-05-07 01:59 | 61.17081 | -149.94830 | 165 ft | 5 kts | 172° |
| 2026-05-07 02:00 | 61.17042 | -149.94846 | 165 ft | 6 kts | 197° |
| 2026-05-07 02:00 | 61.17010 | -149.94856 | 165 ft | 4 kts | 181° |
| 2026-05-07 02:00 | 61.16985 | -149.94879 | 165 ft | 3 kts | 234° |
| 2026-05-07 02:00 | 61.16982 | -149.94930 | 165 ft | 0 kts | 269° |
| 2026-05-07 02:01 | 61.16981 | -149.94969 | 165 ft | 10 kts | 269° |
| 2026-05-07 02:02 | 61.16980 | -149.95648 | 166 ft | 86 kts | 270° |
| 2026-05-07 02:02 | 61.16981 | -149.97407 | 166 ft | 157 kts | 270° |
| 2026-05-07 02:02 | 61.16973 | -149.99957 | 559 ft | 186 kts | 267° |
| 2026-05-07 02:02 | 61.16893 | -150.02641 | 1471 ft | 190 kts | 264° |
| 2026-05-07 02:03 | 61.16801 | -150.05325 | 2236 ft | 192 kts | 265° |
| 2026-05-07 02:03 | 61.16743 | -150.08247 | 2670 ft | 212 kts | 266° |
| 2026-05-07 02:03 | 61.16699 | -150.11374 | 3195 ft | 228 kts | 266° |
| 2026-05-07 02:03 | 61.16703 | -150.14761 | 3738 ft | 245 kts | 278° |
| 2026-05-07 02:04 | 61.17386 | -150.18080 | 4267 ft | 265 kts | 308° |
| 2026-05-07 02:04 | 61.18842 | -150.20462 | 5002 ft | 275 kts | 337° |
| 2026-05-07 02:04 | 61.20674 | -150.21265 | 5781 ft | 280 kts | 3° |
| 2026-05-07 02:04 | 61.22588 | -150.20555 | 6630 ft | 282 kts | 16° |
| 2026-05-07 02:05 | 61.24484 | -150.19525 | 7527 ft | 284 kts | 16° |
| 2026-05-07 02:05 | 61.26383 | -150.18475 | 8385 ft | 287 kts | 16° |
| 2026-05-07 02:05 | 61.28310 | -150.17407 | 9181 ft | 291 kts | 15° |
| 2026-05-07 02:05 | 61.30283 | -150.16313 | 9958 ft | 296 kts | 15° |
| 2026-05-07 02:06 | 61.32267 | -150.15212 | 10556 ft | 307 kts | 15° |
| 2026-05-07 02:06 | 61.34395 | -150.14027 | 10989 ft | 324 kts | 15° |
| 2026-05-07 02:06 | 61.36592 | -150.12805 | 11471 ft | 339 kts | 15° |
| 2026-05-07 02:06 | 61.38909 | -150.11513 | 11948 ft | 355 kts | 15° |
| 2026-05-07 02:07 | 61.41329 | -150.10161 | 12485 ft | 369 kts | 15° |
| 2026-05-07 02:07 | 61.46384 | -150.07330 | 14158 ft | 383 kts | 14° |
| 2026-05-07 02:07 | 61.48971 | -150.05879 | 15086 ft | 388 kts | 14° |
| 2026-05-07 02:08 | 61.51561 | -150.04422 | 15911 ft | 395 kts | 14° |
| 2026-05-07 02:08 | 61.54213 | -150.02928 | 16810 ft | 399 kts | 14° |
| 2026-05-07 02:08 | 61.56906 | -150.01410 | 17704 ft | 403 kts | 14° |
| 2026-05-07 02:08 | 61.59604 | -149.99884 | 18517 ft | 409 kts | 13° |
| 2026-05-07 02:09 | 61.62350 | -149.98331 | 19309 ft | 414 kts | 13° |
| 2026-05-07 02:09 | 61.65112 | -149.96764 | 20113 ft | 418 kts | 13° |
| 2026-05-07 02:09 | 61.67916 | -149.95169 | 20888 ft | 422 kts | 13° |
| 2026-05-07 02:09 | 61.70760 | -149.93550 | 21642 ft | 426 kts | 12° |
| 2026-05-07 02:10 | 61.73612 | -149.91925 | 22349 ft | 431 kts | 12° |
| 2026-05-07 02:10 | 61.76512 | -149.90268 | 23058 ft | 435 kts | 12° |
| 2026-05-07 02:10 | 61.79451 | -149.88585 | 23720 ft | 440 kts | 12° |
| 2026-05-07 02:10 | 61.82402 | -149.86893 | 24408 ft | 443 kts | 11° |
| 2026-05-07 02:11 | 61.85361 | -149.85191 | 25054 ft | 447 kts | 11° |
| 2026-05-07 02:11 | 61.88355 | -149.83469 | 25653 ft | 452 kts | 11° |
| 2026-05-07 02:11 | 61.91404 | -149.81709 | 26244 ft | 456 kts | 11° |
| 2026-05-07 02:11 | 61.94452 | -149.79947 | 26847 ft | 460 kts | 11° |
| 2026-05-07 02:12 | 61.97578 | -149.78136 | 27494 ft | 463 kts | 11° |
| 2026-05-07 02:12 | 62.00718 | -149.76311 | 27924 ft | 465 kts | 11° |
| 2026-05-07 02:12 | 62.03808 | -149.74510 | 27956 ft | 463 kts | 11° |
| 2026-05-07 02:12 | 62.06931 | -149.72687 | 27950 ft | 459 kts | 11° |
| 2026-05-07 02:13 | 62.10017 | -149.70882 | 27957 ft | 460 kts | 11° |
| 2026-05-07 02:13 | 62.13090 | -149.69081 | 27946 ft | 460 kts | 11° |
| 2026-05-07 02:13 | 62.16196 | -149.67256 | 27934 ft | 460 kts | 11° |
| 2026-05-07 02:13 | 62.19316 | -149.65420 | 27929 ft | 460 kts | 11° |
| 2026-05-07 02:14 | 62.22420 | -149.63590 | 27926 ft | 461 kts | 11° |
| 2026-05-07 02:14 | 62.25511 | -149.61763 | 27929 ft | 461 kts | 12° |
| 2026-05-07 02:14 | 62.28579 | -149.59946 | 27913 ft | 460 kts | 12° |
| 2026-05-07 02:14 | 62.31686 | -149.58101 | 27915 ft | 460 kts | 12° |
| 2026-05-07 02:15 | 62.34731 | -149.56290 | 27902 ft | 460 kts | 12° |
| 2026-05-07 02:15 | 62.37833 | -149.54440 | 27902 ft | 460 kts | 12° |
| 2026-05-07 02:15 | 62.40901 | -149.52608 | 27912 ft | 460 kts | 12° |
| 2026-05-07 02:15 | 62.43985 | -149.50761 | 27893 ft | 461 kts | 12° |
| 2026-05-07 02:16 | 62.47057 | -149.48918 | 27898 ft | 460 kts | 12° |
| 2026-05-07 02:16 | 62.50130 | -149.47070 | 27896 ft | 460 kts | 12° |
| 2026-05-07 02:16 | 62.53206 | -149.45216 | 27893 ft | 460 kts | 12° |
| 2026-05-07 02:16 | 62.56284 | -149.43358 | 27897 ft | 460 kts | 12° |
| 2026-05-07 02:17 | 62.59343 | -149.41507 | 27894 ft | 461 kts | 12° |
| 2026-05-07 02:17 | 62.62395 | -149.39656 | 27897 ft | 460 kts | 12° |
| 2026-05-07 02:17 | 62.65511 | -149.37762 | 27888 ft | 461 kts | 12° |
| 2026-05-07 02:17 | 62.68563 | -149.35902 | 27897 ft | 460 kts | 12° |
| 2026-05-07 02:18 | 62.71644 | -149.34023 | 27884 ft | 460 kts | 13° |
| 2026-05-07 02:18 | 62.74708 | -149.32149 | 27871 ft | 460 kts | 13° |
| 2026-05-07 02:18 | 62.77770 | -149.30270 | 27872 ft | 460 kts | 13° |
| 2026-05-07 02:18 | 62.80870 | -149.28366 | 27889 ft | 460 kts | 13° |
| 2026-05-07 02:19 | 62.83919 | -149.26488 | 27873 ft | 459 kts | 13° |
| 2026-05-07 02:19 | 62.87002 | -149.24585 | 27874 ft | 460 kts | 13° |
| 2026-05-07 02:19 | 62.90068 | -149.22688 | 27860 ft | 459 kts | 13° |
| 2026-05-07 02:19 | 62.93135 | -149.20787 | 27860 ft | 459 kts | 13° |
| 2026-05-07 02:20 | 62.96218 | -149.18872 | 27857 ft | 460 kts | 13° |
| 2026-05-07 02:20 | 62.99268 | -149.16972 | 27854 ft | 459 kts | 14° |
| 2026-05-07 02:20 | 63.02352 | -149.15048 | 27836 ft | 459 kts | 14° |
| 2026-05-07 02:20 | 63.05421 | -149.13129 | 27851 ft | 459 kts | 14° |
| 2026-05-07 02:21 | 63.08466 | -149.11220 | 27848 ft | 459 kts | 14° |
| 2026-05-07 02:21 | 63.11541 | -149.09288 | 27851 ft | 458 kts | 14° |
| 2026-05-07 02:21 | 63.14586 | -149.07371 | 27856 ft | 459 kts | 14° |
| 2026-05-07 02:21 | 63.17559 | -149.05496 | 27858 ft | 458 kts | 13° |
| 2026-05-07 02:22 | 63.20613 | -149.03566 | 27863 ft | 458 kts | 13° |
| 2026-05-07 02:22 | 63.23602 | -149.01672 | 27868 ft | 459 kts | 14° |
| 2026-05-07 02:22 | 63.26694 | -148.99709 | 27877 ft | 460 kts | 14° |
| 2026-05-07 02:22 | 63.29756 | -148.97775 | 27877 ft | 460 kts | 13° |
| 2026-05-07 02:23 | 63.32806 | -148.95918 | 27869 ft | 460 kts | 13° |
| 2026-05-07 02:23 | 63.35885 | -148.94049 | 27863 ft | 460 kts | 13° |
| 2026-05-07 02:23 | 63.38981 | -148.92163 | 27862 ft | 460 kts | 13° |
| 2026-05-07 02:23 | 63.42041 | -148.90292 | 27855 ft | 459 kts | 13° |
| 2026-05-07 02:24 | 63.45085 | -148.88428 | 27857 ft | 459 kts | 13° |
| 2026-05-07 02:24 | 63.48143 | -148.86546 | 27633 ft | 451 kts | 13° |
| 2026-05-07 02:24 | 63.51143 | -148.84697 | 27146 ft | 447 kts | 13° |
| 2026-05-07 02:24 | 63.54085 | -148.82880 | 26672 ft | 442 kts | 13° |
| 2026-05-07 02:25 | 63.57030 | -148.81055 | 26205 ft | 438 kts | 13° |
| 2026-05-07 02:25 | 63.59937 | -148.79251 | 25724 ft | 434 kts | 13° |
| 2026-05-07 02:25 | 63.62816 | -148.77460 | 25240 ft | 430 kts | 13° |
| 2026-05-07 02:25 | 63.65673 | -148.75681 | 24764 ft | 425 kts | 13° |
| 2026-05-07 02:26 | 63.68502 | -148.73912 | 24278 ft | 421 kts | 13° |
| 2026-05-07 02:26 | 63.71315 | -148.72154 | 23799 ft | 430 kts | 13° |
| 2026-05-07 02:26 | 63.74213 | -148.70337 | 23286 ft | 433 kts | 14° |
| 2026-05-07 02:26 | 63.77099 | -148.68523 | 22777 ft | 430 kts | 14° |
| 2026-05-07 02:27 | 63.79928 | -148.66740 | 22284 ft | 426 kts | 14° |
| 2026-05-07 02:27 | 63.82762 | -148.64951 | 21795 ft | 422 kts | 14° |
| 2026-05-07 02:27 | 63.85570 | -148.63174 | 21301 ft | 418 kts | 14° |
| 2026-05-07 02:27 | 63.88370 | -148.61400 | 20806 ft | 417 kts | 14° |
| 2026-05-07 02:28 | 63.91118 | -148.59654 | 20298 ft | 416 kts | 14° |
| 2026-05-07 02:28 | 63.93898 | -148.57884 | 19795 ft | 414 kts | 14° |
| 2026-05-07 02:28 | 63.96645 | -148.56133 | 19303 ft | 412 kts | 14° |
| 2026-05-07 02:28 | 63.99387 | -148.54379 | 18789 ft | 410 kts | 14° |
| 2026-05-07 02:29 | 64.02119 | -148.52631 | 18291 ft | 407 kts | 14° |
| 2026-05-07 02:29 | 64.04816 | -148.50899 | 17810 ft | 405 kts | 14° |
| 2026-05-07 02:29 | 64.07513 | -148.49162 | 17324 ft | 405 kts | 14° |
| 2026-05-07 02:29 | 64.10210 | -148.47420 | 16838 ft | 404 kts | 14° |
| 2026-05-07 02:30 | 64.12888 | -148.45686 | 16357 ft | 402 kts | 14° |
| 2026-05-07 02:30 | 64.15460 | -148.44017 | 15895 ft | 399 kts | 14° |
| 2026-05-07 02:30 | 64.18140 | -148.42276 | 15402 ft | 398 kts | 14° |
| 2026-05-07 02:30 | 64.20760 | -148.40570 | 14938 ft | 394 kts | 14° |
| 2026-05-07 02:31 | 64.23402 | -148.38846 | 14468 ft | 391 kts | 14° |
| 2026-05-07 02:31 | 64.25994 | -148.37149 | 13994 ft | 388 kts | 14° |
| 2026-05-07 02:31 | 64.28545 | -148.35478 | 13524 ft | 385 kts | 14° |
| 2026-05-07 02:31 | 64.31111 | -148.33794 | 13047 ft | 382 kts | 15° |
| 2026-05-07 02:32 | 64.33644 | -148.32065 | 12551 ft | 379 kts | 20° |
| 2026-05-07 02:32 | 64.36006 | -148.29546 | 12076 ft | 376 kts | 31° |
| 2026-05-07 02:32 | 64.38199 | -148.26318 | 11622 ft | 371 kts | 34° |
| 2026-05-07 02:32 | 64.40336 | -148.23053 | 11168 ft | 369 kts | 34° |
| 2026-05-07 02:33 | 64.42477 | -148.19765 | 10728 ft | 365 kts | 34° |
| 2026-05-07 02:33 | 64.44549 | -148.16580 | 10615 ft | 350 kts | 34° |
| 2026-05-07 02:33 | 64.46507 | -148.13565 | 10560 ft | 335 kts | 34° |
| 2026-05-07 02:33 | 64.48408 | -148.10629 | 10437 ft | 321 kts | 34° |
| 2026-05-07 02:34 | 64.50226 | -148.07820 | 10315 ft | 309 kts | 34° |
| 2026-05-07 02:34 | 64.51973 | -148.05115 | 10197 ft | 297 kts | 34° |
| 2026-05-07 02:34 | 64.53642 | -148.02527 | 10067 ft | 285 kts | 34° |
| 2026-05-07 02:34 | 64.55257 | -148.00020 | 9965 ft | 281 kts | 34° |
| 2026-05-07 02:35 | 64.56928 | -147.97418 | 9650 ft | 291 kts | 34° |
| 2026-05-07 02:35 | 64.58594 | -147.94821 | 9233 ft | 292 kts | 34° |
| 2026-05-07 02:35 | 64.60281 | -147.92191 | 8867 ft | 288 kts | 33° |
| 2026-05-07 02:35 | 64.61916 | -147.89636 | 8583 ft | 284 kts | 33° |
| 2026-05-07 02:36 | 64.63535 | -147.87102 | 8271 ft | 280 kts | 33° |
| 2026-05-07 02:36 | 64.65143 | -147.84584 | 7973 ft | 278 kts | 32° |
| 2026-05-07 02:36 | 64.66733 | -147.82089 | 7659 ft | 278 kts | 32° |
| 2026-05-07 02:36 | 64.68325 | -147.79588 | 7345 ft | 277 kts | 32° |
| 2026-05-07 02:37 | 64.69917 | -147.77081 | 7034 ft | 276 kts | 32° |
| 2026-05-07 02:37 | 64.71506 | -147.74577 | 6725 ft | 276 kts | 32° |
| 2026-05-07 02:37 | 64.73071 | -147.72108 | 6568 ft | 267 kts | 31° |
| 2026-05-07 02:37 | 64.74566 | -147.69742 | 6535 ft | 252 kts | 31° |
| 2026-05-07 02:38 | 64.75983 | -147.67497 | 6443 ft | 242 kts | 31° |
| 2026-05-07 02:38 | 64.77309 | -147.65164 | 6198 ft | 239 kts | 36° |
| 2026-05-07 02:38 | 64.78597 | -147.62727 | 5874 ft | 239 kts | 36° |
| 2026-05-07 02:38 | 64.79889 | -147.60319 | 5677 ft | 233 kts | 36° |
| 2026-05-07 02:39 | 64.81136 | -147.58017 | 5433 ft | 228 kts | 36° |
| 2026-05-07 02:39 | 64.82373 | -147.55739 | 5135 ft | 224 kts | 36° |
| 2026-05-07 02:39 | 64.83583 | -147.53549 | 4856 ft | 219 kts | 32° |
| 2026-05-07 02:39 | 64.84922 | -147.51968 | 4579 ft | 211 kts | 15° |
| 2026-05-07 02:40 | 64.86327 | -147.51468 | 4303 ft | 203 kts | 357° |
| 2026-05-07 02:40 | 64.87690 | -147.51880 | 4050 ft | 194 kts | 341° |
| 2026-05-07 02:40 | 64.88899 | -147.53125 | 3805 ft | 187 kts | 326° |
| 2026-05-07 02:40 | 64.89891 | -147.54967 | 3571 ft | 180 kts | 312° |
| 2026-05-07 02:41 | 64.90639 | -147.57254 | 3343 ft | 174 kts | 298° |
| 2026-05-07 02:41 | 64.91116 | -147.59801 | 3121 ft | 167 kts | 286° |
| 2026-05-07 02:41 | 64.91322 | -147.62424 | 2924 ft | 160 kts | 274° |
| 2026-05-07 02:41 | 64.91285 | -147.64952 | 2709 ft | 152 kts | 263° |
| 2026-05-07 02:42 | 64.91016 | -147.67288 | 2523 ft | 148 kts | 246° |
| 2026-05-07 02:42 | 64.90491 | -147.69369 | 2355 ft | 147 kts | 233° |
| 2026-05-07 02:42 | 64.89777 | -147.71059 | 2178 ft | 147 kts | 221° |
| 2026-05-07 02:42 | 64.88972 | -147.72546 | 1997 ft | 146 kts | 219° |
| 2026-05-07 02:43 | 64.88172 | -147.73990 | 1794 ft | 145 kts | 219° |
| 2026-05-07 02:43 | 64.87369 | -147.75435 | 1596 ft | 145 kts | 218° |
| 2026-05-07 02:43 | 64.86589 | -147.76906 | 1398 ft | 144 kts | 220° |
| 2026-05-07 02:43 | 64.85800 | -147.78380 | 1215 ft | 144 kts | 219° |
| 2026-05-07 02:44 | 64.85022 | -147.79837 | 1046 ft | 143 kts | 219° |
| 2026-05-07 02:44 | 64.84367 | -147.81041 | 916 ft | 144 kts | 219° |
| 2026-05-07 02:44 | 64.83581 | -147.82489 | 733 ft | 143 kts | 219° |
| 2026-05-07 02:44 | 64.82793 | -147.83943 | 502 ft | 143 kts | 219° |
| 2026-05-07 02:45 | 64.82053 | -147.85298 | 446 ft | 121 kts | 217° |
| 2026-05-07 02:45 | 64.81486 | -147.86345 | 446 ft | 86 kts | 219° |
| 2026-05-07 02:45 | 64.81113 | -147.87028 | 446 ft | 50 kts | 218° |
| 2026-05-07 02:45 | 64.80884 | -147.87448 | 446 ft | 33 kts | 217° |
| 2026-05-07 02:46 | 64.80792 | -147.87614 | 446 ft | 3 kts | 218° |
| 2026-05-07 02:46 | 64.80772 | -147.87682 | 446 ft | 5 kts | 253° |
| 2026-05-07 02:46 | 64.80777 | -147.87747 | 446 ft | 3 kts | 300° |